createdAt,value
2023-08-17T00:00:45.270Z,22.41
2023-08-17T00:03:48.207Z,22.31
2023-08-17T00:06:50.866Z,22.40
2023-08-17T00:09:53.639Z,22.33
2023-08-17T00:12:56.291Z,22.37
2023-08-17T00:15:59.228Z,22.34
2023-08-17T00:19:01.948Z,22.38
2023-08-17T00:22:04.845Z,22.25
2023-08-17T00:25:07.849Z,22.43
2023-08-17T00:28:10.771Z,22.46
2023-08-17T00:31:14.201Z,22.36
2023-08-17T00:34:17.143Z,22.42
2023-08-17T00:37:19.644Z,22.38
2023-08-17T00:40:22.419Z,22.42
2023-08-17T00:43:25.175Z,22.42
2023-08-17T00:46:29.084Z,22.32
2023-08-17T00:49:33.465Z,22.33
2023-08-17T00:52:36.495Z,22.38
2023-08-17T00:55:39.091Z,22.26
2023-08-17T00:58:43.580Z,22.24
2023-08-17T01:01:47.288Z,22.29
2023-08-17T01:04:50.142Z,22.20
2023-08-17T01:07:53.174Z,22.28
2023-08-17T01:11:17.482Z,22.31
2023-08-17T01:14:29.984Z,22.25
2023-08-17T01:17:41.284Z,22.19
2023-08-17T01:20:45.221Z,22.17
2023-08-17T01:23:50.332Z,22.16
2023-08-17T01:26:52.984Z,20.80
2023-08-17T01:29:56.438Z,22.09
2023-08-17T01:33:04.223Z,22.06
2023-08-17T01:36:13.246Z,21.90
2023-08-17T01:39:18.020Z,21.98
2023-08-17T01:42:21.035Z,21.99
2023-08-17T01:45:24.218Z,21.80
2023-08-17T01:48:27.124Z,21.89
2023-08-17T01:51:29.683Z,22.06
2023-08-17T01:54:32.753Z,22.04
2023-08-17T01:57:36.748Z,21.99
2023-08-17T02:00:39.797Z,22.09
2023-08-17T02:03:42.786Z,21.83
2023-08-17T02:06:46.186Z,21.87
2023-08-17T02:09:49.321Z,21.93
2023-08-17T02:12:58.905Z,21.87
2023-08-17T02:16:05.820Z,21.83
2023-08-17T02:19:09.031Z,21.91
2023-08-17T02:22:11.735Z,21.91
2023-08-17T02:25:14.824Z,21.85
2023-08-17T02:28:17.356Z,21.91
2023-08-17T02:31:20.208Z,21.66
2023-08-17T02:34:23.215Z,21.79
2023-08-17T02:37:26.403Z,21.61
2023-08-17T02:40:29.329Z,21.72
2023-08-17T02:43:32.147Z,21.51
2023-08-17T02:46:34.723Z,21.53
2023-08-17T02:49:37.537Z,21.53
2023-08-17T02:52:40.273Z,21.29
2023-08-17T02:55:43.056Z,21.26
2023-08-17T02:58:45.796Z,21.42
2023-08-17T03:01:49.032Z,21.39
2023-08-17T03:04:51.719Z,21.32
2023-08-17T03:07:54.565Z,21.24
2023-08-17T03:10:57.120Z,21.12
2023-08-17T03:14:04.023Z,21.17
2023-08-17T03:17:06.934Z,21.26
2023-08-17T03:20:10.925Z,21.14
2023-08-17T03:23:13.596Z,21.02
2023-08-17T03:26:17.047Z,21.10
2023-08-17T03:29:20.057Z,21.16
2023-08-17T03:32:23.033Z,21.07
2023-08-17T03:35:26.071Z,20.83
2023-08-17T03:38:30.994Z,21.01
2023-08-17T03:41:33.642Z,20.99
2023-08-17T03:44:36.486Z,21.01
2023-08-17T03:47:39.019Z,21.00
2023-08-17T03:50:41.793Z,20.72
2023-08-17T03:53:44.860Z,20.50
2023-08-17T03:56:48.087Z,20.53
2023-08-17T03:59:50.647Z,20.59
2023-08-17T04:02:53.834Z,20.69
2023-08-17T04:05:56.956Z,20.67
2023-08-17T04:08:59.641Z,20.67
2023-08-17T04:12:05.218Z,20.73
2023-08-17T04:15:10.470Z,20.69
2023-08-17T04:18:13.366Z,20.57
2023-08-17T04:21:16.025Z,20.69
2023-08-17T04:24:19.189Z,20.77
2023-08-17T04:27:21.744Z,20.78
2023-08-17T04:30:24.884Z,20.64
2023-08-17T04:33:28.896Z,20.87
2023-08-17T04:36:31.826Z,20.88
2023-08-17T04:39:34.505Z,20.78
2023-08-17T04:42:38.101Z,21.01
2023-08-17T04:45:40.959Z,20.82
2023-08-17T04:48:44.026Z,21.04
2023-08-17T04:51:48.112Z,21.07
2023-08-17T04:54:51.006Z,21.10
2023-08-17T04:57:53.750Z,21.13
2023-08-17T05:00:57.476Z,21.09
2023-08-17T05:04:00.122Z,21.28
2023-08-17T05:07:03.192Z,21.20
2023-08-17T05:10:06.679Z,21.40
2023-08-17T05:13:10.173Z,21.30
2023-08-17T05:16:13.847Z,21.43
2023-08-17T05:19:16.970Z,21.46
2023-08-17T05:22:19.838Z,21.59
2023-08-17T05:25:23.492Z,21.56
2023-08-17T05:28:26.058Z,21.60
2023-08-17T05:31:29.296Z,21.59
2023-08-17T05:34:32.399Z,21.58
2023-08-17T05:37:35.476Z,21.58
2023-08-17T05:40:38.178Z,21.64
2023-08-17T05:43:41.022Z,21.52
2023-08-17T05:46:43.741Z,21.80
2023-08-17T05:49:46.676Z,21.67
2023-08-17T05:52:49.300Z,21.66
2023-08-17T05:55:52.292Z,21.47
2023-08-17T05:58:55.375Z,21.79
2023-08-17T06:01:58.318Z,21.75
2023-08-17T06:05:01.197Z,21.69
2023-08-17T06:08:03.918Z,21.71
2023-08-17T06:11:06.854Z,21.57
2023-08-17T06:14:09.544Z,21.42
2023-08-17T06:17:12.318Z,21.60
2023-08-17T06:20:15.510Z,21.89
2023-08-17T06:23:18.269Z,22.33
2023-08-17T06:26:20.797Z,22.52
2023-08-17T06:29:23.727Z,22.73
2023-08-17T06:32:26.307Z,22.94
2023-08-17T06:35:29.246Z,23.01
2023-08-17T06:38:31.723Z,22.91
2023-08-17T06:41:34.637Z,22.96
2023-08-17T06:44:37.289Z,23.06
2023-08-17T06:47:40.146Z,23.09
2023-08-17T06:50:42.637Z,23.14
2023-08-17T06:53:46.563Z,23.17
2023-08-17T06:56:49.077Z,23.10
2023-08-17T06:59:51.897Z,23.10
2023-08-17T07:02:56.977Z,23.18
2023-08-17T07:06:01.663Z,22.66
2023-08-17T07:09:06.105Z,23.65
2023-08-17T07:12:09.270Z,23.75
2023-08-17T07:15:12.058Z,24.09
2023-08-17T07:18:15.020Z,24.33
2023-08-17T07:21:17.609Z,24.61
2023-08-17T07:24:20.493Z,24.89
2023-08-17T07:27:23.222Z,25.06
2023-08-17T07:30:26.275Z,25.36
2023-08-17T07:33:28.913Z,25.71
2023-08-17T07:36:32.579Z,25.70
2023-08-17T07:39:35.289Z,25.85
2023-08-17T07:42:38.774Z,25.65
2023-08-17T07:45:41.513Z,25.73
2023-08-17T07:48:44.434Z,25.57
2023-08-17T07:51:46.946Z,25.70
2023-08-17T07:54:50.004Z,25.55
2023-08-17T07:57:52.661Z,25.40
2023-08-17T08:00:55.537Z,25.30
2023-08-17T08:03:59.022Z,25.13
2023-08-17T08:07:01.532Z,25.25
2023-08-17T08:10:04.639Z,25.50
2023-08-17T08:13:07.352Z,25.89
2023-08-17T08:16:10.310Z,26.09
2023-08-17T08:19:12.909Z,26.18
2023-08-17T08:22:15.777Z,26.22
2023-08-17T08:25:18.411Z,26.30
2023-08-17T08:28:21.208Z,26.52
2023-08-17T08:31:23.713Z,26.83
2023-08-17T08:34:26.655Z,27.14
2023-08-17T08:37:29.295Z,27.14
2023-08-17T08:40:33.022Z,27.13
2023-08-17T08:43:36.058Z,27.11
2023-08-17T08:46:42.474Z,27.56
2023-08-17T08:49:58.859Z,28.14
2023-08-17T08:53:04.785Z,28.87
2023-08-17T08:56:13.295Z,29.22
2023-08-17T08:59:17.286Z,28.87
2023-08-17T09:02:19.927Z,29.09
2023-08-17T09:05:23.545Z,29.34
2023-08-17T09:08:29.751Z,29.90
2023-08-17T09:11:32.643Z,29.98
2023-08-17T09:14:35.135Z,30.13
2023-08-17T09:17:38.086Z,29.26
2023-08-17T09:20:48.910Z,29.36
2023-08-17T09:27:01.964Z,30.25
2023-08-17T09:30:11.956Z,30.11
2023-08-17T09:33:14.605Z,30.37
2023-08-17T09:36:21.577Z,30.63
2023-08-17T09:39:24.728Z,30.34
2023-08-17T09:42:29.234Z,29.88
2023-08-17T09:45:32.175Z,29.77
2023-08-17T09:48:35.147Z,29.13
2023-08-17T09:51:43.087Z,28.89
2023-08-17T09:54:48.212Z,28.86
2023-08-17T09:57:51.866Z,29.42
2023-08-17T10:00:55.064Z,29.13
2023-08-17T10:03:59.228Z,28.90
2023-08-17T10:07:04.781Z,29.49
2023-08-17T10:10:08.198Z,29.35
2023-08-17T10:13:12.176Z,28.94
2023-08-17T10:16:17.964Z,28.74
2023-08-17T10:19:44.314Z,29.27
2023-08-17T10:22:54.767Z,30.10
2023-08-17T10:25:57.354Z,30.94
2023-08-17T10:29:05.461Z,30.63
2023-08-17T10:32:17.193Z,30.59
2023-08-17T10:35:20.233Z,30.86
2023-08-17T10:38:23.397Z,30.16
2023-08-17T10:41:26.401Z,30.03
2023-08-17T10:44:47.682Z,29.96
2023-08-17T10:47:50.568Z,29.74
2023-08-17T10:51:01.210Z,29.57
2023-08-17T10:54:05.274Z,29.08
2023-08-17T10:57:26.711Z,29.06
2023-08-17T11:00:37.633Z,28.97
2023-08-17T11:03:40.648Z,29.00
2023-08-17T11:06:44.914Z,29.40
2023-08-17T11:09:47.785Z,30.07
2023-08-17T11:12:53.623Z,30.84
2023-08-17T11:15:56.484Z,30.76
2023-08-17T11:19:01.321Z,31.37
2023-08-17T11:22:03.891Z,31.77
2023-08-17T11:25:07.345Z,31.85
2023-08-17T11:28:10.354Z,30.91
2023-08-17T11:31:14.994Z,30.18
2023-08-17T11:34:17.683Z,29.84
2023-08-17T11:37:24.145Z,29.83
2023-08-17T11:40:27.834Z,29.91
2023-08-17T11:43:31.560Z,29.58
2023-08-17T11:46:34.052Z,29.82
2023-08-17T11:49:39.223Z,30.60
2023-08-17T11:52:46.323Z,30.08
2023-08-17T11:55:55.618Z,29.98
2023-08-17T11:58:59.190Z,29.61
2023-08-17T12:02:02.204Z,30.42
2023-08-17T12:05:08.942Z,30.95
2023-08-17T12:08:11.942Z,30.52
2023-08-17T12:11:14.696Z,30.06
2023-08-17T12:14:17.640Z,29.76
2023-08-17T12:17:23.357Z,29.93
2023-08-17T12:20:26.114Z,29.72
2023-08-17T12:23:29.557Z,28.90
2023-08-17T12:26:35.380Z,29.05
2023-08-17T12:29:49.316Z,29.27
2023-08-17T12:32:52.024Z,29.01
2023-08-17T12:35:55.139Z,29.17
2023-08-17T12:38:57.917Z,29.34
2023-08-17T12:42:00.833Z,29.23
2023-08-17T12:45:05.761Z,29.04
2023-08-17T12:48:09.123Z,28.76
2023-08-17T12:51:11.920Z,28.66
2023-08-17T12:54:14.819Z,28.37
2023-08-17T12:57:17.411Z,28.17
2023-08-17T13:00:20.297Z,27.97
2023-08-17T13:03:22.987Z,28.07
2023-08-17T13:06:31.186Z,28.29
2023-08-17T13:09:42.749Z,28.17
2023-08-17T13:12:45.977Z,28.17
2023-08-17T13:15:48.608Z,28.33
2023-08-17T13:18:52.054Z,28.54
2023-08-17T13:21:54.950Z,28.75
2023-08-17T13:24:57.882Z,28.75
2023-08-17T13:28:00.482Z,28.67
2023-08-17T13:31:21.809Z,28.51
2023-08-17T13:34:25.918Z,28.44
2023-08-17T13:37:29.202Z,28.13
2023-08-17T13:40:32.732Z,28.11
2023-08-17T13:43:35.626Z,28.04
2023-08-17T13:46:38.338Z,28.09
2023-08-17T13:49:41.169Z,28.00
2023-08-17T13:52:43.724Z,27.69
2023-08-17T13:55:46.630Z,27.41
2023-08-17T13:58:49.223Z,27.57
2023-08-17T14:01:52.212Z,27.91
2023-08-17T14:04:55.170Z,27.94
2023-08-17T14:07:57.785Z,27.90
2023-08-17T14:11:01.528Z,28.01
2023-08-17T14:14:04.166Z,27.75
2023-08-17T14:17:07.033Z,27.96
2023-08-17T14:20:10.129Z,28.04
2023-08-17T14:23:12.954Z,28.20
2023-08-17T14:26:16.362Z,28.40
2023-08-17T14:29:19.377Z,28.09
2023-08-17T14:32:21.958Z,27.84
2023-08-17T14:35:24.845Z,27.37
2023-08-17T14:38:31.737Z,26.98
2023-08-17T14:41:35.101Z,26.40
2023-08-17T14:44:37.698Z,26.43
2023-08-17T14:47:40.560Z,26.31
2023-08-17T14:50:43.107Z,26.01
2023-08-17T14:53:46.088Z,26.19
2023-08-17T14:56:48.797Z,26.34
2023-08-17T14:59:51.796Z,26.66
2023-08-17T15:03:00.998Z,26.77
2023-08-17T15:06:04.159Z,26.78
2023-08-17T15:09:06.682Z,26.79
2023-08-17T15:12:09.597Z,26.71
2023-08-17T15:15:12.221Z,26.64
2023-08-17T15:18:15.192Z,26.66
2023-08-17T15:21:17.861Z,26.50
2023-08-17T15:24:21.171Z,26.20
2023-08-17T15:27:23.796Z,25.93
2023-08-17T15:30:26.868Z,25.94
2023-08-17T15:33:33.057Z,25.85
2023-08-17T15:36:35.950Z,25.72
2023-08-17T15:39:38.513Z,25.63
2023-08-17T15:42:41.350Z,25.52
2023-08-17T15:45:44.161Z,25.39
2023-08-17T15:48:47.104Z,25.42
2023-08-17T15:51:49.593Z,24.94
2023-08-17T15:54:52.376Z,25.15
2023-08-17T15:57:55.150Z,25.05
2023-08-17T16:00:58.104Z,25.11
2023-08-17T16:04:00.919Z,25.22
2023-08-17T16:07:04.177Z,25.25
2023-08-17T16:10:07.584Z,25.28
2023-08-17T16:13:10.317Z,25.25
2023-08-17T16:16:13.341Z,25.34
2023-08-17T16:19:16.009Z,25.32
2023-08-17T16:22:18.872Z,25.22
2023-08-17T16:25:21.527Z,25.27
2023-08-17T16:28:24.559Z,25.25
2023-08-17T16:31:27.254Z,25.24
2023-08-17T16:34:31.284Z,25.21
2023-08-17T16:37:34.298Z,25.07
2023-08-17T16:40:38.616Z,25.14
2023-08-17T16:43:41.628Z,25.02
2023-08-17T16:46:44.621Z,25.10
2023-08-17T16:49:47.100Z,24.98
2023-08-17T16:52:51.188Z,25.03
2023-08-17T16:55:55.773Z,24.97
2023-08-17T16:59:01.673Z,24.96
2023-08-17T17:02:05.138Z,25.00
2023-08-17T17:05:08.690Z,25.07
2023-08-17T17:08:11.354Z,24.98
2023-08-17T17:11:14.256Z,24.91
2023-08-17T17:14:16.834Z,24.80
2023-08-17T17:17:19.720Z,24.74
2023-08-17T17:20:22.391Z,24.76
2023-08-17T17:23:25.391Z,24.71
2023-08-17T17:26:28.128Z,24.55
2023-08-17T17:29:30.963Z,24.50
2023-08-17T17:32:33.702Z,24.34
2023-08-17T17:35:36.840Z,24.44
2023-08-17T17:38:39.358Z,24.26
2023-08-17T17:41:44.321Z,24.27
2023-08-17T17:44:46.835Z,24.18
2023-08-17T17:47:49.729Z,23.99
2023-08-17T17:50:52.347Z,23.88
2023-08-17T17:53:56.362Z,23.88
2023-08-17T17:56:59.475Z,23.87
2023-08-17T18:00:02.506Z,23.77
2023-08-17T18:03:15.916Z,23.83
2023-08-17T18:06:18.927Z,23.83
2023-08-17T18:09:22.549Z,23.83
2023-08-17T18:12:28.934Z,23.71
2023-08-17T18:15:33.817Z,23.73
2023-08-17T18:18:39.766Z,23.73
2023-08-17T18:21:42.292Z,23.80
2023-08-17T18:24:45.344Z,23.80
2023-08-17T18:27:48.164Z,23.64
2023-08-17T18:30:51.324Z,23.55
2023-08-17T18:33:54.231Z,23.40
2023-08-17T18:36:57.114Z,23.28
2023-08-17T18:39:59.825Z,23.23
2023-08-17T18:43:02.762Z,23.18
2023-08-17T18:46:06.257Z,23.16
2023-08-17T18:49:09.248Z,23.08
2023-08-17T18:52:11.840Z,23.00
2023-08-17T18:55:14.896Z,22.96
2023-08-17T18:58:19.261Z,22.82
2023-08-17T19:01:22.238Z,22.79
2023-08-17T19:04:26.791Z,22.75
2023-08-17T19:07:30.698Z,22.74
2023-08-17T19:10:33.641Z,22.74
2023-08-17T19:13:36.606Z,22.71
2023-08-17T19:16:39.520Z,22.73
2023-08-17T19:19:42.534Z,22.14
2023-08-17T19:22:45.066Z,22.68
2023-08-17T19:25:47.904Z,22.67
2023-08-17T19:28:50.834Z,22.70
2023-08-17T19:31:53.774Z,22.70
2023-08-17T19:34:56.643Z,22.69
2023-08-17T19:38:00.007Z,22.69
2023-08-17T19:41:02.722Z,22.34
2023-08-17T19:44:05.621Z,22.66
2023-08-17T19:47:08.733Z,22.61
2023-08-17T19:50:11.902Z,22.59
2023-08-17T19:53:14.667Z,22.62
2023-08-17T19:56:17.593Z,22.61
2023-08-17T19:59:21.241Z,22.58
2023-08-17T20:02:24.345Z,22.31
2023-08-17T20:05:28.292Z,22.54
2023-08-17T20:08:31.011Z,22.51
2023-08-17T20:11:33.965Z,22.47
2023-08-17T20:14:37.180Z,22.53
2023-08-17T20:17:40.817Z,22.50
2023-08-17T20:20:55.035Z,22.34
2023-08-17T20:23:57.955Z,22.42
2023-08-17T20:27:01.577Z,22.35
2023-08-17T20:30:05.209Z,22.30
2023-08-17T20:33:07.832Z,21.89
2023-08-17T20:36:10.900Z,22.18
2023-08-17T20:39:16.473Z,22.13
2023-08-17T20:42:19.403Z,22.11
2023-08-17T20:45:21.957Z,22.07
2023-08-17T20:48:25.492Z,22.02
2023-08-17T20:51:28.148Z,22.01
2023-08-17T20:54:31.460Z,21.93
2023-08-17T20:57:34.045Z,22.01
2023-08-17T21:00:36.960Z,21.92
2023-08-17T21:03:40.035Z,22.05
2023-08-17T21:06:43.736Z,22.03
2023-08-17T21:09:46.212Z,22.08
2023-08-17T21:12:49.132Z,21.99
2023-08-17T21:15:52.206Z,22.01
2023-08-17T21:19:00.297Z,22.00
2023-08-17T21:22:03.364Z,22.03
2023-08-17T21:25:07.201Z,22.02
2023-08-17T21:28:12.006Z,22.01
2023-08-17T21:31:14.978Z,22.03
2023-08-17T21:34:20.618Z,21.94
2023-08-17T21:37:28.442Z,21.99
2023-08-17T21:40:31.608Z,22.02
2023-08-17T21:43:34.710Z,22.02
2023-08-17T21:46:37.482Z,22.02
2023-08-17T21:49:42.272Z,22.06
2023-08-17T21:52:45.181Z,22.07
2023-08-17T21:55:49.395Z,22.00
2023-08-17T21:58:52.061Z,22.06
2023-08-17T22:01:54.952Z,22.04
2023-08-17T22:04:57.766Z,22.02
2023-08-17T22:08:00.329Z,22.13
2023-08-17T22:11:03.249Z,22.15
2023-08-17T22:14:05.842Z,22.17
2023-08-17T22:17:08.784Z,22.16
2023-08-17T22:20:12.841Z,22.16
2023-08-17T22:23:15.871Z,22.16
2023-08-17T22:26:18.449Z,22.18
2023-08-17T22:29:21.279Z,22.17
2023-08-17T22:32:24.530Z,22.17
2023-08-17T22:35:27.466Z,22.18
2023-08-17T22:38:30.375Z,22.20
2023-08-17T22:41:33.127Z,22.15
2023-08-17T22:44:35.757Z,22.20
2023-08-17T22:47:38.728Z,22.23
2023-08-17T22:50:41.505Z,22.28
2023-08-17T22:53:44.399Z,22.19
2023-08-17T22:56:46.958Z,22.22
2023-08-17T22:59:49.871Z,22.12
2023-08-17T23:02:52.636Z,22.09
2023-08-17T23:05:55.525Z,22.19
2023-08-17T23:08:58.106Z,22.17
2023-08-17T23:12:00.979Z,22.14
2023-08-17T23:15:03.798Z,22.16
2023-08-17T23:18:06.812Z,22.16
2023-08-17T23:21:09.535Z,22.13
2023-08-17T23:24:12.576Z,22.16
2023-08-17T23:27:15.244Z,22.17
2023-08-17T23:30:18.131Z,22.10
2023-08-17T23:33:21.269Z,22.14
2023-08-17T23:36:24.275Z,21.75
2023-08-17T23:39:27.055Z,22.17
2023-08-17T23:42:30.050Z,22.07
2023-08-17T23:45:32.671Z,22.13
2023-08-17T23:48:35.464Z,22.21
2023-08-17T23:51:37.969Z,22.21
2023-08-17T23:54:40.809Z,22.17
2023-08-17T23:57:43.438Z,22.19
